createdAt,value
2018-08-09T00:01:50.292Z,10.77
2018-08-09T00:04:20.742Z,11.77
2018-08-09T00:06:49.606Z,10.40
2018-08-09T00:09:21.549Z,12.50
2018-08-09T00:11:51.288Z,11.80
2018-08-09T00:14:20.827Z,12.37
2018-08-09T00:16:48.979Z,11.83
2018-08-09T00:19:17.613Z,14.37
2018-08-09T00:21:45.772Z,13.30
2018-08-09T00:24:15.810Z,13.90
2018-08-09T00:26:45.520Z,13.47
2018-08-09T00:29:14.892Z,13.20
2018-08-09T00:31:43.137Z,13.57
2018-08-09T00:34:12.328Z,13.70
2018-08-09T00:36:41.495Z,14.47
2018-08-09T00:39:13.348Z,14.83
2018-08-09T00:41:43.409Z,14.27
2018-08-09T00:44:11.748Z,14.43
2018-08-09T00:46:41.095Z,13.07
2018-08-09T00:49:10.433Z,13.23
2018-08-09T00:51:38.639Z,12.77
2018-08-09T00:54:07.933Z,13.17
2018-08-09T00:56:38.459Z,14.50
2018-08-09T00:59:07.476Z,12.57
2018-08-09T01:01:36.975Z,14.63
2018-08-09T01:04:05.101Z,14.70
2018-08-09T01:06:35.615Z,14.00
2018-08-09T01:09:09.185Z,13.10
2018-08-09T01:11:38.342Z,15.37
2018-08-09T01:14:06.509Z,14.90
2018-08-09T01:16:34.728Z,14.60
2018-08-09T01:19:02.936Z,17.20
2018-08-09T01:21:31.919Z,13.73
2018-08-09T01:24:03.872Z,16.03
2018-08-09T01:26:32.788Z,15.37
2018-08-09T01:29:03.198Z,15.13
2018-08-09T01:31:37.333Z,14.90
2018-08-09T01:34:07.555Z,14.13
2018-08-09T01:36:39.052Z,15.17
2018-08-09T01:39:10.335Z,16.10
2018-08-09T01:41:39.726Z,16.30
2018-08-09T01:44:08.918Z,17.70
2018-08-09T01:46:37.996Z,16.13
2018-08-09T01:49:07.777Z,15.70
2018-08-09T01:51:36.147Z,15.97
2018-08-09T01:54:06.327Z,15.17
2018-08-09T01:56:34.524Z,15.93
2018-08-09T01:59:02.742Z,18.33
2018-08-09T02:01:30.987Z,16.90
2018-08-09T02:03:59.663Z,17.03
2018-08-09T02:06:27.900Z,14.73
2018-08-09T02:09:00.521Z,13.93
2018-08-09T02:11:30.016Z,15.37
2018-08-09T02:13:58.489Z,17.50
2018-08-09T02:16:26.832Z,20.80
2018-08-09T02:18:56.652Z,16.30
2018-08-09T02:21:25.824Z,16.43
2018-08-09T02:23:55.971Z,14.97
2018-08-09T02:26:24.620Z,15.87
2018-08-09T02:28:53.735Z,16.13
2018-08-09T02:31:23.151Z,15.30
2018-08-09T02:33:52.690Z,15.90
2018-08-09T02:36:21.372Z,16.20
2018-08-09T02:38:51.052Z,13.73
2018-08-09T02:41:26.372Z,15.90
2018-08-09T02:43:55.139Z,15.63
2018-08-09T02:46:23.861Z,14.07
2018-08-09T02:48:52.639Z,14.13
2018-08-09T02:51:21.525Z,14.10
2018-08-09T02:53:51.399Z,14.73
2018-08-09T02:56:21.884Z,13.67
2018-08-09T02:58:51.312Z,15.07
2018-08-09T03:01:19.486Z,15.30
2018-08-09T03:03:49.193Z,16.90
2018-08-09T03:06:19.585Z,15.87
2018-08-09T03:08:51.578Z,16.70
2018-08-09T03:11:19.786Z,15.77
2018-08-09T03:13:49.519Z,15.90
2018-08-09T03:16:18.916Z,13.77
2018-08-09T03:18:48.644Z,13.20
2018-08-09T03:21:17.212Z,14.70
2018-08-09T03:23:45.361Z,15.67
2018-08-09T03:26:14.679Z,14.77
2018-08-09T03:28:45.172Z,16.80
2018-08-09T03:31:13.860Z,16.70
2018-08-09T03:33:43.967Z,16.40
2018-08-09T03:36:13.368Z,17.10
2018-08-09T03:38:41.819Z,17.93
2018-08-09T03:41:12.865Z,18.80
2018-08-09T03:43:41.994Z,17.27
2018-08-09T03:46:25.770Z,15.97
2018-08-09T03:48:54.554Z,16.40
2018-08-09T03:51:23.402Z,16.77
2018-08-09T03:53:52.497Z,16.77
2018-08-09T03:56:20.672Z,15.67
2018-08-09T03:58:51.950Z,16.37
2018-08-09T04:01:20.129Z,18.33
2018-08-09T04:03:49.447Z,17.70
2018-08-09T04:06:18.868Z,15.73
2018-08-09T04:08:47.192Z,17.50
2018-08-09T04:11:17.864Z,16.70
2018-08-09T04:13:48.657Z,16.80
2018-08-09T04:16:18.784Z,17.30
2018-08-09T04:18:47.458Z,18.83
2018-08-09T04:21:17.321Z,17.97
2018-08-09T04:23:45.989Z,17.27
2018-08-09T04:26:14.248Z,18.00
2018-08-09T04:28:43.008Z,16.67
2018-08-09T04:31:13.639Z,17.47
2018-08-09T04:33:43.422Z,15.10
2018-08-09T04:36:12.316Z,15.77
2018-08-09T04:38:41.909Z,17.90
2018-08-09T04:41:11.071Z,15.97
2018-08-09T04:43:39.495Z,15.87
2018-08-09T04:46:08.416Z,16.00
2018-08-09T04:48:37.133Z,16.57
2018-08-09T04:51:07.044Z,17.83
2018-08-09T04:53:36.359Z,16.17
2018-08-09T04:56:07.370Z,17.10
2018-08-09T04:58:35.529Z,20.07
2018-08-09T05:01:04.472Z,17.77
2018-08-09T05:03:33.665Z,13.43
2018-08-09T05:06:02.949Z,16.53
2018-08-09T05:08:31.152Z,15.57
2018-08-09T05:10:59.812Z,15.47
2018-08-09T05:13:28.946Z,15.40
2018-08-09T05:15:57.136Z,15.90
2018-08-09T05:18:25.260Z,15.50
2018-08-09T05:20:54.768Z,14.30
2018-08-09T05:23:24.828Z,14.03
2018-08-09T05:25:53.293Z,15.53
2018-08-09T05:28:21.521Z,14.97
2018-08-09T05:30:49.678Z,14.10
2018-08-09T05:33:19.154Z,15.23
2018-08-09T05:35:47.303Z,14.27
2018-08-09T05:38:15.488Z,14.17
2018-08-09T05:40:44.544Z,13.60
2018-08-09T05:43:13.124Z,13.30
2018-08-09T05:45:41.880Z,14.33
2018-08-09T05:48:10.316Z,15.70
2018-08-09T05:50:39.368Z,13.20
2018-08-09T05:53:08.406Z,13.40
2018-08-09T05:55:37.034Z,13.53
2018-08-09T05:58:05.308Z,12.10
2018-08-09T06:00:36.140Z,11.53
2018-08-09T06:03:05.802Z,13.17
2018-08-09T06:05:35.812Z,12.10
2018-08-09T06:08:05.367Z,13.47
2018-08-09T06:10:33.562Z,12.13
2018-08-09T06:13:01.721Z,12.87
2018-08-09T06:15:31.597Z,12.00
2018-08-09T06:18:00.456Z,12.87
2018-08-09T06:20:29.664Z,12.07
2018-08-09T06:22:57.938Z,11.17
2018-08-09T06:25:26.433Z,11.97
2018-08-09T06:27:55.488Z,11.50
2018-08-09T06:30:24.826Z,12.50
2018-08-09T06:32:54.933Z,15.70
2018-08-09T06:35:24.077Z,11.97
2018-08-09T06:37:57.106Z,12.00
2018-08-09T06:40:27.152Z,11.13
2018-08-09T06:42:55.364Z,12.37
2018-08-09T06:45:23.596Z,11.70
2018-08-09T06:47:51.825Z,11.50
2018-08-09T06:50:20.080Z,10.63
2018-08-09T06:52:48.235Z,10.03
2018-08-09T06:55:16.762Z,10.03
2018-08-09T06:57:44.948Z,9.23
2018-08-09T07:00:13.809Z,9.70
2018-08-09T07:02:42.252Z,9.27
2018-08-09T07:05:10.439Z,9.17
2018-08-09T07:07:41.719Z,9.10
2018-08-09T07:10:10.316Z,9.10
2018-08-09T07:12:38.808Z,9.00
2018-08-09T07:15:12.026Z,9.00
2018-08-09T07:17:42.075Z,8.37
2018-08-09T07:20:11.362Z,7.70
2018-08-09T07:22:42.395Z,8.63
2018-08-09T07:25:12.798Z,7.13
2018-08-09T07:27:42.094Z,8.37
2018-08-09T07:30:13.344Z,7.90
2018-08-09T07:32:41.844Z,7.90
2018-08-09T07:35:12.573Z,8.17
2018-08-09T07:37:41.648Z,6.40
2018-08-09T07:40:12.404Z,7.77
2018-08-09T07:42:43.456Z,9.27
2018-08-09T07:45:13.894Z,7.50
2018-08-09T07:47:42.074Z,6.60
2018-08-09T07:50:11.605Z,8.40
2018-08-09T07:52:41.119Z,6.03
2018-08-09T07:55:11.544Z,9.13
2018-08-09T07:57:41.043Z,6.87
2018-08-09T08:00:12.656Z,6.70
2018-08-09T08:02:41.493Z,5.60
2018-08-09T08:05:09.783Z,6.23
2018-08-09T08:07:39.661Z,10.83
2018-08-09T08:10:09.733Z,5.57
2018-08-09T08:12:38.178Z,6.03
2018-08-09T08:15:10.180Z,15.93
2018-08-09T08:17:40.097Z,6.23
2018-08-09T08:20:11.125Z,6.73
2018-08-09T08:22:39.834Z,5.73
2018-08-09T08:25:08.300Z,7.43
2018-08-09T08:27:38.343Z,7.17
2018-08-09T08:30:11.946Z,6.50
2018-08-09T08:32:45.325Z,7.33
2018-08-09T08:35:14.189Z,6.27
2018-08-09T08:37:45.081Z,5.70
2018-08-09T08:40:15.185Z,7.73
2018-08-09T08:42:45.864Z,6.60
2018-08-09T08:45:14.777Z,8.40
2018-08-09T08:47:43.787Z,9.10
2018-08-09T08:50:12.367Z,11.03
2018-08-09T08:52:40.567Z,6.30
2018-08-09T08:55:12.612Z,6.83
2018-08-09T08:57:41.264Z,6.70
2018-08-09T09:00:12.453Z,7.13
2018-08-09T09:02:41.528Z,7.17
2018-08-09T09:05:11.552Z,9.70
2018-08-09T09:07:41.676Z,8.50
2018-08-09T09:10:12.309Z,10.30
2018-08-09T09:12:41.718Z,8.17
2018-08-09T09:15:12.628Z,10.20
2018-08-09T09:17:42.240Z,6.27
2018-08-09T09:20:13.584Z,7.90
2018-08-09T09:22:43.003Z,6.63
2018-08-09T09:25:13.588Z,7.40
2018-08-09T09:27:42.231Z,8.43
2018-08-09T09:30:16.340Z,7.00
2018-08-09T09:32:45.662Z,6.93
2018-08-09T09:35:16.321Z,7.37
2018-08-09T09:37:45.253Z,6.50
2018-08-09T09:40:15.692Z,6.80
2018-08-09T09:42:44.425Z,14.10
2018-08-09T09:45:12.609Z,9.00
2018-08-09T09:47:41.120Z,7.20
2018-08-09T09:50:11.430Z,8.77
2018-08-09T09:52:40.244Z,8.80
2018-08-09T09:55:08.434Z,6.93
2018-08-09T09:57:37.305Z,9.03
2018-08-09T10:00:12.004Z,7.90
2018-08-09T10:02:41.442Z,6.83
2018-08-09T10:05:09.716Z,6.80
2018-08-09T10:07:41.401Z,8.93
2018-08-09T10:10:10.436Z,8.37
2018-08-09T10:12:41.024Z,7.47
2018-08-09T10:15:11.596Z,8.23
2018-08-09T10:17:40.788Z,6.73
2018-08-09T10:20:10.127Z,7.93
2018-08-09T10:22:39.596Z,9.60
2018-08-09T10:25:08.201Z,9.90
2018-08-09T10:27:37.338Z,9.47
2018-08-09T10:30:06.146Z,7.40
2018-08-09T10:32:35.238Z,6.30
2018-08-09T10:35:04.269Z,11.37
2018-08-09T10:37:33.132Z,8.13
2018-08-09T10:40:03.030Z,7.00
2018-08-09T10:42:32.054Z,8.40
2018-08-09T10:45:01.100Z,7.73
2018-08-09T10:47:30.507Z,8.83
2018-08-09T10:50:00.485Z,10.30
2018-08-09T10:52:28.883Z,6.33
2018-08-09T10:54:57.096Z,7.87
2018-08-09T10:57:25.289Z,6.80
2018-08-09T10:59:53.426Z,7.03
2018-08-09T11:02:22.827Z,7.70
2018-08-09T11:04:52.883Z,10.17
2018-08-09T11:07:22.776Z,10.17
2018-08-09T11:09:52.299Z,8.63
2018-08-09T11:12:21.741Z,5.57
2018-08-09T11:14:50.483Z,6.40
2018-08-09T11:17:19.655Z,6.03
2018-08-09T11:19:47.799Z,6.50
2018-08-09T11:22:16.796Z,7.90
2018-08-09T11:24:45.241Z,8.67
2018-08-09T11:27:14.963Z,7.67
2018-08-09T11:29:44.399Z,8.90
2018-08-09T11:32:12.604Z,5.50
2018-08-09T11:34:42.888Z,5.10
2018-08-09T11:37:11.356Z,6.20
2018-08-09T11:39:39.553Z,6.60
2018-08-09T11:42:07.712Z,5.97
2018-08-09T11:44:37.556Z,7.73
2018-08-09T11:47:06.300Z,6.07
2018-08-09T11:49:34.425Z,6.70
2018-08-09T11:52:04.463Z,4.57
2018-08-09T11:54:34.024Z,5.83
2018-08-09T11:57:02.592Z,5.63
2018-08-09T11:59:31.404Z,5.40
2018-08-09T12:02:03.689Z,5.63
2018-08-09T12:04:31.954Z,6.03
2018-08-09T12:07:02.106Z,4.70
2018-08-09T12:09:30.682Z,5.30
2018-08-09T12:11:59.429Z,6.60
2018-08-09T12:14:29.016Z,5.47
2018-08-09T12:16:58.728Z,6.23
2018-08-09T12:19:27.424Z,10.20
2018-08-09T12:21:57.243Z,10.63
2018-08-09T12:24:26.401Z,5.97
2018-08-09T12:26:55.729Z,6.67
2018-08-09T12:29:25.260Z,5.43
2018-08-09T12:31:54.281Z,6.73
2018-08-09T12:34:22.932Z,8.03
2018-08-09T12:36:51.749Z,5.87
2018-08-09T12:39:20.963Z,6.03
2018-08-09T12:41:49.630Z,8.63
2018-08-09T12:44:18.044Z,11.10
2018-08-09T12:46:47.120Z,6.27
2018-08-09T12:49:15.349Z,9.03
2018-08-09T12:51:45.810Z,6.87
2018-08-09T12:54:15.017Z,8.27
2018-08-09T12:56:43.488Z,8.13
2018-08-09T12:59:11.996Z,8.00
2018-08-09T13:01:41.738Z,7.87
2018-08-09T13:04:12.488Z,5.33
2018-08-09T13:06:42.835Z,6.13
2018-08-09T13:09:12.600Z,6.27
2018-08-09T13:11:41.068Z,7.37
2018-08-09T13:14:12.069Z,5.83
2018-08-09T13:16:40.734Z,8.37
2018-08-09T13:19:10.340Z,7.60
2018-08-09T13:21:40.193Z,6.40
2018-08-09T13:24:08.529Z,8.70
2018-08-09T13:26:38.414Z,9.43
2018-08-09T13:29:06.599Z,2.80
2018-08-09T13:31:35.136Z,6.70
2018-08-09T13:34:04.197Z,4.70
2018-08-09T13:36:32.445Z,3.30
2018-08-09T13:39:01.181Z,2.37
2018-08-09T13:41:30.247Z,7.90
2018-08-09T13:43:59.016Z,5.47
2018-08-09T13:46:29.548Z,3.67
2018-08-09T13:48:59.069Z,2.57
2018-08-09T13:51:27.255Z,4.40
2018-08-09T13:53:56.365Z,7.53
2018-08-09T13:56:24.622Z,1.70
2018-08-09T13:58:54.461Z,3.00
2018-08-09T14:01:24.165Z,3.37
2018-08-09T14:03:52.377Z,2.67
2018-08-09T14:06:20.861Z,5.03
2018-08-09T14:08:51.053Z,7.60
2018-08-09T14:11:21.145Z,3.33
2018-08-09T14:13:50.272Z,3.33
2018-08-09T14:16:18.880Z,4.53
2018-08-09T14:18:47.097Z,4.17
2018-08-09T14:21:16.638Z,2.40
2018-08-09T14:23:45.565Z,4.87
2018-08-09T14:26:14.368Z,2.57
2018-08-09T14:28:43.121Z,10.03
2018-08-09T14:31:13.405Z,3.63
2018-08-09T14:33:42.589Z,1.67
2018-08-09T14:36:16.663Z,3.50
2018-08-09T14:38:46.068Z,2.77
2018-08-09T14:41:17.613Z,1.83
2018-08-09T14:43:46.780Z,1.73
2018-08-09T14:46:14.978Z,1.57
2018-08-09T14:48:43.553Z,2.23
2018-08-09T14:51:11.817Z,3.27
2018-08-09T14:53:42.033Z,3.37
2018-08-09T14:56:10.469Z,2.90
2018-08-09T14:58:39.071Z,1.73
2018-08-09T15:01:08.366Z,1.60
2018-08-09T15:03:37.184Z,1.60
2018-08-09T15:06:06.116Z,1.80
2018-08-09T15:08:36.621Z,1.40
2018-08-09T15:11:05.556Z,2.53
2018-08-09T15:13:35.515Z,1.70
2018-08-09T15:16:03.762Z,4.47
2018-08-09T15:18:36.041Z,2.37
2018-08-09T15:21:05.408Z,4.00
2018-08-09T15:23:33.581Z,2.30
2018-08-09T15:26:01.816Z,1.97
2018-08-09T15:28:29.961Z,4.70
2018-08-09T15:30:59.289Z,4.40
2018-08-09T15:33:28.090Z,2.67
2018-08-09T15:35:57.513Z,2.80
2018-08-09T15:38:27.461Z,3.00
2018-08-09T15:40:56.507Z,2.60
2018-08-09T15:43:26.447Z,2.57
2018-08-09T15:45:55.097Z,2.63
2018-08-09T15:48:24.116Z,4.30
2018-08-09T15:50:52.249Z,2.20
2018-08-09T15:53:22.044Z,2.77
2018-08-09T15:55:51.896Z,2.30
2018-08-09T15:58:20.344Z,3.63
2018-08-09T16:00:49.611Z,2.40
2018-08-09T16:03:20.592Z,3.10
2018-08-09T16:05:51.214Z,4.33
2018-08-09T16:08:21.208Z,3.50
2018-08-09T16:10:51.066Z,2.80
2018-08-09T16:13:20.197Z,3.97
2018-08-09T16:15:49.318Z,2.07
2018-08-09T16:18:18.467Z,2.90
2018-08-09T16:20:48.819Z,2.43
2018-08-09T16:23:16.976Z,3.00
2018-08-09T16:25:46.012Z,1.70
2018-08-09T16:28:14.465Z,2.00
2018-08-09T16:30:42.629Z,1.60
2018-08-09T16:33:11.129Z,5.50
2018-08-09T16:35:40.251Z,3.33
2018-08-09T16:38:10.381Z,5.87
2018-08-09T16:40:38.788Z,2.23
2018-08-09T16:43:07.992Z,2.47
2018-08-09T16:45:38.003Z,3.10
2018-08-09T16:48:07.533Z,2.80
2018-08-09T16:50:38.833Z,2.10
2018-08-09T16:53:07.392Z,1.57
2018-08-09T16:55:37.288Z,1.70
2018-08-09T16:58:06.881Z,1.67
2018-08-09T17:00:35.843Z,1.53
2018-08-09T17:03:05.019Z,2.80
2018-08-09T17:05:33.598Z,2.50
2018-08-09T17:08:03.521Z,2.10
2018-08-09T17:10:33.405Z,3.57
2018-08-09T17:13:02.436Z,1.73
2018-08-09T17:15:30.630Z,1.80
2018-08-09T17:18:00.104Z,1.43
2018-08-09T17:20:30.652Z,2.50
2018-08-09T17:23:00.368Z,2.20
2018-08-09T17:25:29.831Z,5.00
2018-08-09T17:27:58.531Z,2.50
2018-08-09T17:30:28.398Z,2.83
2018-08-09T17:32:58.570Z,6.60
2018-08-09T17:35:28.287Z,2.27
2018-08-09T17:37:57.756Z,2.23
2018-08-09T17:40:29.197Z,2.40
2018-08-09T17:42:59.289Z,2.10
2018-08-09T17:45:30.291Z,2.50
2018-08-09T17:48:00.513Z,2.20
2018-08-09T17:50:31.754Z,2.80
2018-08-09T17:53:01.037Z,3.77
2018-08-09T17:55:30.199Z,2.03
2018-08-09T17:57:59.081Z,2.33
2018-08-09T18:00:32.388Z,2.50
2018-08-09T18:03:01.094Z,3.83
2018-08-09T18:05:31.413Z,1.87
2018-08-09T18:08:00.176Z,2.10
2018-08-09T18:10:30.870Z,2.77
2018-08-09T18:12:59.792Z,2.30
2018-08-09T18:15:29.304Z,2.57
2018-08-09T18:17:58.804Z,2.73
2018-08-09T18:20:32.436Z,5.50
2018-08-09T18:23:00.672Z,2.20
2018-08-09T18:25:29.593Z,2.53
2018-08-09T18:27:58.360Z,2.17
2018-08-09T18:30:26.576Z,3.20
2018-08-09T18:32:54.803Z,2.47
2018-08-09T18:35:23.414Z,4.50
2018-08-09T18:37:51.640Z,2.67
2018-08-09T18:40:23.885Z,2.20
2018-08-09T18:42:52.922Z,2.00
2018-08-09T18:45:25.121Z,1.70
2018-08-09T18:47:53.284Z,1.60
2018-08-09T18:50:27.114Z,1.67
2018-08-09T18:52:55.588Z,1.90
2018-08-09T18:55:34.783Z,1.60
2018-08-09T18:58:06.928Z,2.33
2018-08-09T19:00:36.648Z,2.63
2018-08-09T19:03:05.956Z,2.07
2018-08-09T19:05:35.751Z,1.67
2018-08-09T19:08:03.972Z,1.60
2018-08-09T19:10:32.985Z,1.70
2018-08-09T19:13:01.116Z,2.20
2018-08-09T19:15:30.052Z,1.83
2018-08-09T19:17:58.300Z,1.90
2018-08-09T19:20:30.068Z,2.57
2018-08-09T19:22:58.904Z,2.87
2018-08-09T19:25:27.693Z,2.10
2018-08-09T19:27:55.880Z,2.30
2018-08-09T19:30:25.712Z,1.50
2018-08-09T19:32:55.639Z,2.00
2018-08-09T19:35:24.643Z,2.80
2018-08-09T19:37:54.436Z,1.70
2018-08-09T19:40:28.661Z,2.07
2018-08-09T19:42:56.899Z,2.00
2018-08-09T19:45:25.709Z,2.20
2018-08-09T19:47:54.486Z,3.00
2018-08-09T19:50:24.595Z,2.10
2018-08-09T19:52:53.648Z,3.23
2018-08-09T19:55:24.821Z,2.10
2018-08-09T19:57:55.136Z,1.97
2018-08-09T20:00:27.663Z,1.60
2018-08-09T20:02:57.468Z,1.40
2018-08-09T20:05:27.584Z,2.50
2018-08-09T20:07:56.319Z,1.80
2018-08-09T20:10:26.415Z,1.70
2018-08-09T20:12:55.897Z,1.20
2018-08-09T20:15:25.856Z,4.53
2018-08-09T20:17:54.564Z,2.63
2018-08-09T20:20:25.950Z,3.43
2018-08-09T20:22:54.527Z,1.73
2018-08-09T20:25:24.015Z,1.83
2018-08-09T20:27:53.708Z,1.97
2018-08-09T20:30:23.137Z,1.40
2018-08-09T20:32:51.455Z,1.60
2018-08-09T20:35:22.871Z,2.50
2018-08-09T20:37:52.663Z,1.87
2018-08-09T20:40:28.486Z,1.90
2018-08-09T20:42:56.985Z,3.10
2018-08-09T20:45:25.430Z,8.63
2018-08-09T20:47:54.391Z,1.60
2018-08-09T20:50:26.220Z,2.03
2018-08-09T20:52:54.999Z,1.90
2018-08-09T20:55:24.791Z,1.67
2018-08-09T20:57:53.732Z,1.60
2018-08-09T21:00:24.092Z,1.80
2018-08-09T21:02:55.415Z,1.20
2018-08-09T21:05:28.396Z,1.47
2018-08-09T21:07:57.100Z,1.27
2018-08-09T21:10:29.400Z,1.60
2018-08-09T21:13:01.188Z,2.00
2018-08-09T21:15:29.855Z,1.60
2018-08-09T21:17:59.665Z,1.50
2018-08-09T21:20:28.135Z,1.30
2018-08-09T21:22:58.936Z,1.40
2018-08-09T21:25:27.879Z,1.03
2018-08-09T21:27:58.489Z,2.90
2018-08-09T21:30:27.684Z,1.47
2018-08-09T21:32:56.205Z,1.10
2018-08-09T21:35:24.360Z,1.50
2018-08-09T21:37:52.512Z,1.47
2018-08-09T21:40:20.729Z,1.00
2018-08-09T21:42:49.669Z,1.40
2018-08-09T21:45:19.833Z,1.20
2018-08-09T21:47:48.210Z,1.23
2018-08-09T21:50:18.268Z,1.10
2018-08-09T21:52:46.686Z,0.90
2018-08-09T21:55:16.100Z,1.57
2018-08-09T21:57:46.320Z,1.33
2018-08-09T22:01:05.912Z,1.80
2018-08-09T22:03:35.961Z,1.27
2018-08-09T22:06:10.444Z,1.23
2018-08-09T22:08:45.028Z,1.83
2018-08-09T22:11:19.193Z,1.17
2018-08-09T22:13:56.357Z,1.70
2018-08-09T22:16:30.988Z,0.90
2018-08-09T22:19:05.889Z,1.43
2018-08-09T22:21:39.360Z,1.80
2018-08-09T22:24:08.225Z,1.37
2018-08-09T22:26:36.674Z,0.87
2018-08-09T22:29:05.829Z,0.80
2018-08-09T22:31:34.947Z,0.73
2018-08-09T22:34:03.600Z,1.00
2018-08-09T22:36:32.961Z,1.17
2018-08-09T22:39:02.692Z,3.70
2018-08-09T22:41:31.384Z,1.07
2018-08-09T22:43:59.608Z,1.20
2018-08-09T22:46:29.360Z,0.80
2018-08-09T22:48:57.588Z,0.73
2018-08-09T22:51:25.731Z,0.83
2018-08-09T22:53:56.297Z,1.43
2018-08-09T22:56:25.281Z,1.77
2018-08-09T22:58:56.474Z,1.43
2018-08-09T23:01:25.881Z,1.10
2018-08-09T23:03:55.152Z,0.63
2018-08-09T23:06:23.935Z,0.80
2018-08-09T23:08:52.213Z,1.50
2018-08-09T23:11:21.415Z,0.80
2018-08-09T23:13:49.578Z,0.70
2018-08-09T23:16:19.076Z,0.80
2018-08-09T23:18:48.033Z,0.70
2018-08-09T23:21:16.290Z,0.80
2018-08-09T23:23:46.852Z,0.80
2018-08-09T23:26:17.207Z,1.43
2018-08-09T23:28:47.633Z,1.27
2018-08-09T23:31:16.075Z,2.20
2018-08-09T23:33:44.273Z,1.07
2018-08-09T23:36:12.697Z,1.27
2018-08-09T23:38:42.294Z,0.90
2018-08-09T23:41:10.834Z,0.80
2018-08-09T23:43:40.812Z,0.73
2018-08-09T23:46:09.544Z,1.10
2018-08-09T23:48:38.332Z,1.20
2018-08-09T23:51:06.534Z,0.70
2018-08-09T23:53:35.913Z,1.67
2018-08-09T23:56:04.157Z,0.80
2018-08-09T23:58:32.292Z,2.67
